createdAt,value
2023-02-25T00:01:44.503Z,19.96
2023-02-25T00:04:14.860Z,19.96
2023-02-25T00:06:50.866Z,19.96
2023-02-25T00:09:24.001Z,19.96
2023-02-25T00:11:57.882Z,19.96
2023-02-25T00:14:30.879Z,19.96
2023-02-25T00:17:04.016Z,19.96
2023-02-25T00:19:36.996Z,19.96
2023-02-25T00:22:09.776Z,19.96
2023-02-25T00:24:42.726Z,19.96
2023-02-25T00:27:15.930Z,19.96
2023-02-25T00:29:48.782Z,19.96
2023-02-25T00:32:22.251Z,19.95
2023-02-25T00:34:54.992Z,19.96
2023-02-25T00:37:28.000Z,19.95
2023-02-25T00:40:00.925Z,19.95
2023-02-25T00:42:33.643Z,19.95
2023-02-25T00:45:06.968Z,19.95
2023-02-25T00:47:39.915Z,19.95
2023-02-25T00:50:12.911Z,19.95
2023-02-25T00:52:45.654Z,19.95
2023-02-25T00:55:18.909Z,19.95
2023-02-25T00:57:51.932Z,19.95
2023-02-25T01:00:24.959Z,19.95
2023-02-25T01:02:58.296Z,19.95
2023-02-25T01:05:31.760Z,19.95
2023-02-25T01:08:05.052Z,19.95
2023-02-25T01:10:38.175Z,19.95
2023-02-25T01:13:12.099Z,19.95
2023-02-25T01:15:44.937Z,19.95
2023-02-25T01:18:17.986Z,19.96
2023-02-25T01:20:51.006Z,19.96
2023-02-25T01:23:23.992Z,19.96
2023-02-25T01:25:56.988Z,19.96
2023-02-25T01:28:30.046Z,19.96
2023-02-25T01:31:03.215Z,19.97
2023-02-25T01:33:37.061Z,19.97
2023-02-25T01:36:09.833Z,19.98
2023-02-25T01:38:43.060Z,19.98
2023-02-25T01:41:15.682Z,19.99
2023-02-25T01:43:49.083Z,19.99
2023-02-25T01:46:22.323Z,19.99
2023-02-25T01:48:55.117Z,19.99
2023-02-25T01:51:27.826Z,20.00
2023-02-25T01:54:01.266Z,20.00
2023-02-25T01:56:35.023Z,20.01
2023-02-25T01:59:07.888Z,20.01
2023-02-25T02:01:41.185Z,20.01
2023-02-25T02:04:15.008Z,20.01
2023-02-25T02:06:48.062Z,20.02
2023-02-25T02:09:21.072Z,20.02
2023-02-25T02:11:53.766Z,20.02
2023-02-25T02:17:16.791Z,20.02
2023-02-25T02:19:49.932Z,20.02
2023-02-25T02:22:23.118Z,20.02
2023-02-25T02:24:55.753Z,20.02
2023-02-25T02:27:28.888Z,20.02
2023-02-25T02:30:15.710Z,20.02
2023-02-25T02:32:49.058Z,20.02
2023-02-25T02:35:21.796Z,20.02
2023-02-25T02:37:54.903Z,20.02
2023-02-25T02:40:28.144Z,20.02
2023-02-25T02:43:01.143Z,20.02
2023-02-25T02:45:34.362Z,20.02
2023-02-25T02:48:07.991Z,20.02
2023-02-25T02:50:41.190Z,20.01
2023-02-25T02:53:14.104Z,20.01
2023-02-25T02:55:47.163Z,20.01
2023-02-25T02:58:20.139Z,20.01
2023-02-25T03:00:53.071Z,20.00
2023-02-25T03:03:26.225Z,20.00
2023-02-25T03:05:59.160Z,20.00
2023-02-25T03:08:31.922Z,20.00
2023-02-25T03:11:05.215Z,20.00
2023-02-25T03:13:37.907Z,19.99
2023-02-25T03:16:11.174Z,19.99
2023-02-25T03:18:44.234Z,19.99
2023-02-25T03:21:17.136Z,19.99
2023-02-25T03:23:50.127Z,19.99
2023-02-25T03:26:23.350Z,19.99
2023-02-25T03:28:55.966Z,19.99
2023-02-25T03:31:29.363Z,19.98
2023-02-25T03:34:02.054Z,19.98
2023-02-25T03:36:35.155Z,19.98
2023-02-25T03:39:07.952Z,19.98
2023-02-25T03:41:40.999Z,19.98
2023-02-25T03:44:14.143Z,19.98
2023-02-25T03:46:47.083Z,19.97
2023-02-25T03:49:19.907Z,19.97
2023-02-25T03:51:53.051Z,19.96
2023-02-25T03:54:26.021Z,19.96
2023-02-25T03:56:59.376Z,19.96
2023-02-25T03:59:33.267Z,19.96
2023-02-25T04:02:06.236Z,19.95
2023-02-25T04:04:39.167Z,19.95
2023-02-25T04:07:12.225Z,19.94
2023-02-25T04:09:44.968Z,19.94
2023-02-25T04:12:18.242Z,19.94
2023-02-25T04:14:51.008Z,19.93
2023-02-25T04:17:23.988Z,19.93
2023-02-25T04:19:57.230Z,19.92
2023-02-25T04:22:30.254Z,19.92
2023-02-25T04:27:53.257Z,19.92
2023-02-25T04:30:26.345Z,19.91
2023-02-25T04:32:59.407Z,19.91
2023-02-25T04:35:33.369Z,19.91
2023-02-25T04:38:08.979Z,19.90
2023-02-25T04:40:53.001Z,19.90
2023-02-25T04:43:26.172Z,19.90
2023-02-25T04:45:59.373Z,19.90
2023-02-25T04:48:32.145Z,19.89
2023-02-25T04:51:05.164Z,19.89
2023-02-25T04:53:38.460Z,19.88
2023-02-25T04:56:12.226Z,19.88
2023-02-25T04:58:45.343Z,19.88
2023-02-25T05:01:17.990Z,19.87
2023-02-25T05:03:57.358Z,19.87
2023-02-25T05:06:30.296Z,19.87
2023-02-25T05:09:03.434Z,19.86
2023-02-25T05:11:37.592Z,19.86
2023-02-25T05:14:25.076Z,19.85
2023-02-25T05:16:58.370Z,19.85
2023-02-25T05:19:31.430Z,19.85
2023-02-25T05:22:04.368Z,19.85
2023-02-25T05:24:37.161Z,19.84
2023-02-25T05:27:10.532Z,19.84
2023-02-25T05:29:44.497Z,19.84
2023-02-25T05:32:17.485Z,19.83
2023-02-25T05:34:50.527Z,19.83
2023-02-25T05:37:24.428Z,19.82
2023-02-25T05:39:57.414Z,19.82
2023-02-25T05:42:30.324Z,19.81
2023-02-25T05:45:03.067Z,19.81
2023-02-25T05:47:36.209Z,19.81
2023-02-25T05:50:09.518Z,19.81
2023-02-25T05:52:46.142Z,19.80
2023-02-25T05:55:19.314Z,19.80
2023-02-25T05:57:52.243Z,19.80
2023-02-25T06:00:25.243Z,19.79
2023-02-25T06:02:58.495Z,19.79
2023-02-25T06:05:32.118Z,19.79
2023-02-25T06:08:05.260Z,19.78
2023-02-25T06:10:38.246Z,19.78
2023-02-25T06:13:11.394Z,19.77
2023-02-25T06:15:44.245Z,19.77
2023-02-25T06:18:20.351Z,19.76
2023-02-25T06:20:53.424Z,19.76
2023-02-25T06:23:26.372Z,19.76
2023-02-25T06:25:59.593Z,19.75
2023-02-25T06:28:33.474Z,19.75
2023-02-25T06:31:06.321Z,19.75
2023-02-25T06:33:39.414Z,19.74
2023-02-25T06:36:12.464Z,19.74
2023-02-25T06:38:45.675Z,19.74
2023-02-25T06:41:19.133Z,19.73
2023-02-25T06:43:52.748Z,19.73
2023-02-25T06:46:25.853Z,19.72
2023-02-25T06:48:58.516Z,19.72
2023-02-25T06:51:31.538Z,19.72
2023-02-25T06:54:04.468Z,19.71
2023-02-25T06:56:37.279Z,19.71
2023-02-25T06:59:10.487Z,19.71
2023-02-25T07:01:43.490Z,19.70
2023-02-25T07:04:16.280Z,19.70
2023-02-25T07:06:49.632Z,19.70
2023-02-25T07:09:23.699Z,19.70
2023-02-25T07:11:57.482Z,19.70
2023-02-25T07:14:30.241Z,19.69
2023-02-25T07:17:03.432Z,19.69
2023-02-25T07:19:36.384Z,19.69
2023-02-25T07:22:09.456Z,19.69
2023-02-25T07:24:42.543Z,19.68
2023-02-25T07:27:15.214Z,19.68
2023-02-25T07:29:48.417Z,19.68
2023-02-25T07:32:21.499Z,19.68
2023-02-25T07:34:54.373Z,19.67
2023-02-25T07:37:27.508Z,19.67
2023-02-25T07:40:03.183Z,19.67
2023-02-25T07:42:36.369Z,19.67
2023-02-25T07:45:09.559Z,19.67
2023-02-25T07:47:42.518Z,19.67
2023-02-25T07:50:15.312Z,19.67
2023-02-25T07:52:48.563Z,19.66
2023-02-25T07:55:21.289Z,19.67
2023-02-25T07:57:54.552Z,19.67
2023-02-25T08:00:27.435Z,19.66
2023-02-25T08:03:00.410Z,19.66
2023-02-25T08:05:33.399Z,19.66
2023-02-25T08:08:10.079Z,19.66
2023-02-25T08:10:43.373Z,19.65
2023-02-25T08:13:16.463Z,19.65
2023-02-25T08:15:49.373Z,19.65
2023-02-25T08:18:22.512Z,19.65
2023-02-25T08:20:55.438Z,19.65
2023-02-25T08:23:28.884Z,19.65
2023-02-25T08:26:02.380Z,19.64
2023-02-25T08:28:37.220Z,19.64
2023-02-25T08:31:11.559Z,19.64
2023-02-25T08:33:44.447Z,19.64
2023-02-25T08:36:17.332Z,19.64
2023-02-25T08:38:50.410Z,19.64
2023-02-25T08:41:23.914Z,19.64
2023-02-25T08:43:56.582Z,19.63
2023-02-25T08:46:29.730Z,19.63
2023-02-25T08:49:02.683Z,19.63
2023-02-25T08:51:35.772Z,19.62
2023-02-25T08:54:08.674Z,19.62
2023-02-25T08:56:41.709Z,19.62
2023-02-25T08:59:14.619Z,19.62
2023-02-25T09:01:47.437Z,19.62
2023-02-25T09:04:20.646Z,19.61
2023-02-25T09:06:53.489Z,19.61
2023-02-25T09:09:26.482Z,19.61
2023-02-25T09:12:00.024Z,19.61
2023-02-25T09:14:33.699Z,19.61
2023-02-25T09:17:06.591Z,19.60
2023-02-25T09:19:39.528Z,19.60
2023-02-25T09:22:12.504Z,19.60
2023-02-25T09:24:45.480Z,19.60
2023-02-25T09:27:18.744Z,19.60
2023-02-25T09:29:51.452Z,19.61
2023-02-25T09:32:25.554Z,19.60
2023-02-25T09:35:00.726Z,19.51
2023-02-25T09:37:31.518Z,19.35
2023-02-25T09:40:04.432Z,19.18
2023-02-25T09:42:37.576Z,19.00
2023-02-25T09:45:10.779Z,18.87
2023-02-25T09:47:43.913Z,18.78
2023-02-25T09:50:30.781Z,18.75
2023-02-25T09:53:03.615Z,18.74
2023-02-25T09:55:36.646Z,18.75
2023-02-25T09:58:09.923Z,18.77
2023-02-25T10:00:43.453Z,18.80
2023-02-25T10:03:16.623Z,18.84
2023-02-25T10:05:49.724Z,18.87
2023-02-25T10:08:22.717Z,18.91
2023-02-25T10:10:55.828Z,18.95
2023-02-25T10:13:28.517Z,19.00
2023-02-25T10:16:01.577Z,19.04
2023-02-25T10:18:34.814Z,19.08
2023-02-25T10:21:07.490Z,19.12
2023-02-25T10:23:40.840Z,19.16
2023-02-25T10:26:13.851Z,19.20
2023-02-25T10:28:47.052Z,19.23
2023-02-25T10:31:20.990Z,19.26
2023-02-25T10:33:53.609Z,19.29
2023-02-25T10:36:26.981Z,19.32
2023-02-25T10:39:00.808Z,19.35
2023-02-25T10:41:33.839Z,19.37
2023-02-25T10:44:07.012Z,19.39
2023-02-25T10:46:40.959Z,19.42
2023-02-25T10:49:16.382Z,19.44
2023-02-25T10:51:47.874Z,19.45
2023-02-25T10:54:20.859Z,19.48
2023-02-25T10:56:53.869Z,19.50
2023-02-25T10:59:28.468Z,19.52
2023-02-25T11:02:00.261Z,19.54
2023-02-25T11:04:33.834Z,19.56
2023-02-25T11:07:06.713Z,19.57
2023-02-25T11:09:39.855Z,19.59
2023-02-25T11:12:12.917Z,19.60
2023-02-25T11:14:45.969Z,19.62
2023-02-25T11:17:18.892Z,19.63
2023-02-25T11:19:51.881Z,19.65
2023-02-25T11:22:24.660Z,19.66
2023-02-25T11:24:57.783Z,19.68
2023-02-25T11:27:30.714Z,19.69
2023-02-25T11:30:03.631Z,19.70
2023-02-25T11:32:36.781Z,19.71
2023-02-25T11:35:09.763Z,19.72
2023-02-25T11:37:44.711Z,19.73
2023-02-25T11:40:15.748Z,19.74
2023-02-25T11:42:48.768Z,19.75
2023-02-25T11:45:21.640Z,19.76
2023-02-25T11:47:54.764Z,19.77
2023-02-25T11:50:27.823Z,19.78
2023-02-25T11:53:00.945Z,19.79
2023-02-25T11:55:33.655Z,19.80
2023-02-25T11:58:06.626Z,19.80
2023-02-25T12:00:39.844Z,19.81
2023-02-25T12:03:12.935Z,19.82
2023-02-25T12:05:46.107Z,19.83
2023-02-25T12:08:18.708Z,19.84
2023-02-25T12:10:52.047Z,19.85
2023-02-25T12:13:24.765Z,19.86
2023-02-25T12:15:57.928Z,19.87
2023-02-25T12:18:30.787Z,19.88
2023-02-25T12:21:03.780Z,19.90
2023-02-25T12:23:36.805Z,19.91
2023-02-25T12:26:09.860Z,19.93
2023-02-25T12:28:42.867Z,19.94
2023-02-25T12:31:19.538Z,19.95
2023-02-25T12:33:53.092Z,19.97
2023-02-25T12:36:25.778Z,19.98
2023-02-25T12:38:58.926Z,19.99
2023-02-25T12:41:31.846Z,20.01
2023-02-25T12:44:04.725Z,20.02
2023-02-25T12:46:37.819Z,20.04
2023-02-25T12:49:11.290Z,20.06
2023-02-25T12:51:44.843Z,20.08
2023-02-25T12:54:18.001Z,20.10
2023-02-25T12:56:51.276Z,20.11
2023-02-25T12:59:24.967Z,20.13
2023-02-25T13:01:57.745Z,20.14
2023-02-25T13:04:30.855Z,20.14
2023-02-25T13:07:03.768Z,20.14
2023-02-25T13:09:36.945Z,20.14
2023-02-25T13:12:11.766Z,20.14
2023-02-25T13:14:43.175Z,20.14
2023-02-25T13:17:15.769Z,20.14
2023-02-25T13:19:49.052Z,20.14
2023-02-25T13:22:21.734Z,20.14
2023-02-25T13:24:54.881Z,20.13
2023-02-25T13:27:28.119Z,20.14
2023-02-25T13:30:00.892Z,20.14
2023-02-25T13:32:34.016Z,20.15
2023-02-25T13:35:06.864Z,20.15
2023-02-25T13:37:39.878Z,20.16
2023-02-25T13:40:12.980Z,20.17
2023-02-25T13:42:45.776Z,20.18
2023-02-25T13:45:19.032Z,20.19
2023-02-25T13:47:51.946Z,20.20
2023-02-25T13:50:25.068Z,20.21
2023-02-25T13:52:57.806Z,20.22
2023-02-25T13:55:31.013Z,20.23
2023-02-25T13:58:03.964Z,20.23
2023-02-25T14:00:37.347Z,20.24
2023-02-25T14:03:11.118Z,20.24
2023-02-25T14:05:44.179Z,20.25
2023-02-25T14:08:17.135Z,20.25
2023-02-25T14:10:50.006Z,20.25
2023-02-25T14:13:22.834Z,20.26
2023-02-25T14:15:56.096Z,20.27
2023-02-25T14:18:28.907Z,20.29
2023-02-25T14:21:02.482Z,20.31
2023-02-25T14:23:35.952Z,20.34
2023-02-25T14:26:08.955Z,20.37
2023-02-25T14:28:41.866Z,20.41
2023-02-25T14:31:14.990Z,20.46
2023-02-25T14:33:48.197Z,20.50
2023-02-25T14:36:20.888Z,20.54
2023-02-25T14:38:54.894Z,20.58
2023-02-25T14:41:28.086Z,20.61
2023-02-25T14:44:01.086Z,20.63
2023-02-25T14:46:34.053Z,20.64
2023-02-25T14:49:07.051Z,20.64
2023-02-25T14:51:43.021Z,20.64
2023-02-25T14:54:16.180Z,20.65
2023-02-25T14:56:49.296Z,20.67
2023-02-25T14:59:22.124Z,20.69
2023-02-25T15:01:55.478Z,20.69
2023-02-25T15:04:29.083Z,20.69
2023-02-25T15:07:01.912Z,20.68
2023-02-25T15:09:34.981Z,20.68
2023-02-25T15:12:08.243Z,20.67
2023-02-25T15:14:41.282Z,20.68
2023-02-25T15:17:14.085Z,20.68
2023-02-25T15:19:47.381Z,20.68
2023-02-25T15:22:21.036Z,20.70
2023-02-25T15:24:54.115Z,20.71
2023-02-25T15:27:27.241Z,20.71
2023-02-25T15:30:00.094Z,20.71
2023-02-25T15:32:33.066Z,20.72
2023-02-25T15:35:06.311Z,20.72
2023-02-25T15:37:39.063Z,20.72
2023-02-25T15:40:11.953Z,20.71
2023-02-25T15:42:45.324Z,20.70
2023-02-25T15:48:08.389Z,20.68
2023-02-25T15:50:41.366Z,20.66
2023-02-25T15:53:14.245Z,20.65
2023-02-25T15:55:47.239Z,20.64
2023-02-25T15:58:23.240Z,20.63
2023-02-25T16:00:56.383Z,20.63
2023-02-25T16:03:29.010Z,20.62
2023-02-25T16:06:02.153Z,20.62
2023-02-25T16:08:35.300Z,20.62
2023-02-25T16:11:08.323Z,20.61
2023-02-25T16:16:31.341Z,20.60
2023-02-25T16:19:04.144Z,20.60
2023-02-25T16:21:37.062Z,20.59
2023-02-25T16:24:10.032Z,20.59
2023-02-25T16:26:43.125Z,20.59
2023-02-25T16:29:16.319Z,20.59
2023-02-25T16:31:49.433Z,20.58
2023-02-25T16:34:22.248Z,20.58
2023-02-25T16:36:55.149Z,20.58
2023-02-25T16:39:28.324Z,20.58
2023-02-25T16:42:01.507Z,20.58
2023-02-25T16:44:37.033Z,20.59
2023-02-25T16:47:08.073Z,20.59
2023-02-25T16:49:41.413Z,20.59
2023-02-25T16:52:14.248Z,20.58
2023-02-25T16:54:47.356Z,20.58
2023-02-25T16:57:20.304Z,20.57
2023-02-25T16:59:53.384Z,20.57
2023-02-25T17:02:26.461Z,20.57
2023-02-25T17:04:59.374Z,20.57
2023-02-25T17:07:32.125Z,20.57
2023-02-25T17:10:05.306Z,20.58
2023-02-25T17:12:38.378Z,20.58
2023-02-25T17:15:11.393Z,20.58
2023-02-25T17:17:44.442Z,20.59
2023-02-25T17:20:17.094Z,20.59
2023-02-25T17:22:50.340Z,20.59
2023-02-25T17:25:23.111Z,20.58
2023-02-25T17:27:56.387Z,20.52
2023-02-25T17:30:29.457Z,20.43
2023-02-25T17:33:02.293Z,20.31
2023-02-25T17:35:35.169Z,20.18
2023-02-25T17:38:08.494Z,20.05
2023-02-25T17:40:41.191Z,19.92
2023-02-25T17:43:14.491Z,19.78
2023-02-25T17:45:47.461Z,19.66
2023-02-25T17:48:20.165Z,19.55
2023-02-25T17:50:53.311Z,19.47
2023-02-25T17:53:26.705Z,19.42
2023-02-25T17:56:00.253Z,19.38
2023-02-25T17:58:33.421Z,19.36
2023-02-25T18:01:08.345Z,19.35
2023-02-25T18:03:41.192Z,19.35
2023-02-25T18:06:14.508Z,19.36
2023-02-25T18:08:47.471Z,19.37
2023-02-25T18:11:20.222Z,19.38
2023-02-25T18:13:53.342Z,19.40
2023-02-25T18:16:26.990Z,19.42
2023-02-25T18:18:59.522Z,19.43
2023-02-25T18:21:32.261Z,19.45
2023-02-25T18:24:05.668Z,19.47
2023-02-25T18:26:39.581Z,19.49
2023-02-25T18:29:12.231Z,19.51
2023-02-25T18:31:45.520Z,19.53
2023-02-25T18:34:18.490Z,19.54
2023-02-25T18:36:51.269Z,19.56
2023-02-25T18:39:24.359Z,19.58
2023-02-25T18:41:57.364Z,19.60
2023-02-25T18:44:30.240Z,19.61
2023-02-25T18:47:05.255Z,19.63
2023-02-25T18:49:38.347Z,19.64
2023-02-25T18:52:11.471Z,19.66
2023-02-25T18:54:44.581Z,19.68
2023-02-25T18:57:17.338Z,19.69
2023-02-25T18:59:50.691Z,19.71
2023-02-25T19:02:23.407Z,19.73
2023-02-25T19:04:56.602Z,19.75
2023-02-25T19:07:29.613Z,19.76
2023-02-25T19:10:02.541Z,19.78
2023-02-25T19:12:35.567Z,19.80
2023-02-25T19:15:08.292Z,19.81
2023-02-25T19:17:41.309Z,19.83
2023-02-25T19:20:14.482Z,19.84
2023-02-25T19:22:47.342Z,19.85
2023-02-25T19:25:20.339Z,19.86
2023-02-25T19:27:59.382Z,19.88
2023-02-25T19:30:32.654Z,19.89
2023-02-25T19:33:05.317Z,19.90
2023-02-25T19:35:38.598Z,19.90
2023-02-25T19:38:12.514Z,19.90
2023-02-25T19:40:45.360Z,19.90
2023-02-25T19:43:18.317Z,19.90
2023-02-25T19:45:51.923Z,19.89
2023-02-25T19:48:25.513Z,19.90
2023-02-25T19:50:58.352Z,19.90
2023-02-25T19:53:31.496Z,19.90
2023-02-25T19:56:04.434Z,19.90
2023-02-25T19:58:37.679Z,19.90
2023-02-25T20:01:10.768Z,19.91
2023-02-25T20:03:44.602Z,19.91
2023-02-25T20:06:17.431Z,19.92
2023-02-25T20:08:50.508Z,19.93
2023-02-25T20:11:23.495Z,19.93
2023-02-25T20:13:56.601Z,19.94
2023-02-25T20:16:29.770Z,19.94
2023-02-25T20:19:02.484Z,19.95
2023-02-25T20:21:35.490Z,19.95
2023-02-25T20:24:08.526Z,19.96
2023-02-25T20:26:41.431Z,19.96
2023-02-25T20:29:14.557Z,19.97
2023-02-25T20:31:47.744Z,19.96
2023-02-25T20:34:20.525Z,19.85
2023-02-25T20:36:53.419Z,19.64
2023-02-25T20:39:26.547Z,19.36
2023-02-25T20:41:59.427Z,19.14
2023-02-25T20:44:32.811Z,18.99
2023-02-25T20:47:05.429Z,18.90
2023-02-25T20:49:38.571Z,18.87
2023-02-25T20:52:11.635Z,18.86
2023-02-25T20:54:44.454Z,18.87
2023-02-25T20:57:17.465Z,18.89
2023-02-25T20:59:50.755Z,18.92
2023-02-25T21:02:23.728Z,18.95
2023-02-25T21:04:56.664Z,18.99
2023-02-25T21:07:29.612Z,19.02
2023-02-25T21:10:02.617Z,19.05
2023-02-25T21:12:49.400Z,19.09
2023-02-25T21:15:22.505Z,19.12
2023-02-25T21:17:55.653Z,19.15
2023-02-25T21:20:28.609Z,19.19
2023-02-25T21:23:01.671Z,19.21
2023-02-25T21:25:35.654Z,19.24
2023-02-25T21:28:08.897Z,19.25
2023-02-25T21:30:41.628Z,19.27
2023-02-25T21:33:14.648Z,19.29
2023-02-25T21:35:47.773Z,19.30
2023-02-25T21:38:20.634Z,19.31
2023-02-25T21:40:53.650Z,19.32
2023-02-25T21:43:26.612Z,19.33
2023-02-25T21:45:59.726Z,19.34
2023-02-25T21:48:32.710Z,19.34
2023-02-25T21:51:05.776Z,19.35
2023-02-25T21:53:38.757Z,19.35
2023-02-25T21:56:11.616Z,19.35
2023-02-25T21:58:44.579Z,19.35
2023-02-25T22:01:17.555Z,19.35
2023-02-25T22:03:50.554Z,19.35
2023-02-25T22:06:24.402Z,19.35
2023-02-25T22:08:56.749Z,19.35
2023-02-25T22:11:29.700Z,19.35
2023-02-25T22:14:02.598Z,19.35
2023-02-25T22:16:35.834Z,19.35
2023-02-25T22:19:08.732Z,19.35
2023-02-25T22:21:41.907Z,19.35
2023-02-25T22:24:14.897Z,19.35
2023-02-25T22:26:49.647Z,19.35
2023-02-25T22:29:25.691Z,19.35
2023-02-25T22:31:58.835Z,19.35
2023-02-25T22:34:32.097Z,19.35
2023-02-25T22:37:05.862Z,19.34
2023-02-25T22:39:38.698Z,19.34
2023-02-25T22:42:11.783Z,19.35
2023-02-25T22:44:44.863Z,19.34
2023-02-25T22:47:18.028Z,19.34
2023-02-25T22:49:50.612Z,19.34
2023-02-25T22:52:24.029Z,19.34
2023-02-25T22:54:57.962Z,19.34
2023-02-25T22:57:30.784Z,19.33
2023-02-25T23:00:03.769Z,19.33
2023-02-25T23:02:36.971Z,19.33
2023-02-25T23:05:10.058Z,19.33
2023-02-25T23:07:43.985Z,19.33
2023-02-25T23:10:16.616Z,19.33
2023-02-25T23:12:49.736Z,19.32
2023-02-25T23:15:22.792Z,19.32
2023-02-25T23:17:55.936Z,19.31
2023-02-25T23:20:28.965Z,19.31
2023-02-25T23:23:02.014Z,19.31
2023-02-25T23:28:24.849Z,19.30
2023-02-25T23:30:57.756Z,19.30
2023-02-25T23:33:31.007Z,19.30
2023-02-25T23:36:03.880Z,19.30
2023-02-25T23:38:37.004Z,19.30
2023-02-25T23:41:09.795Z,19.29
2023-02-25T23:43:43.035Z,19.29
2023-02-25T23:46:16.107Z,19.29
2023-02-25T23:48:49.146Z,19.29
2023-02-25T23:51:23.005Z,19.29
2023-02-25T23:53:55.845Z,19.28
2023-02-25T23:56:28.789Z,19.28
2023-02-25T23:59:01.757Z,19.28
